Time,TemperatureF,DewpointF,PressureIn,WindDirection,WindDirectionDegrees,WindSpeedMPH,WindSpeedGustMPH,Humidity,HourlyPrecipIn,Conditions,Clouds,dailyrainin,SolarRadiationWatts/m^2,SoftwareType,DateUTC
2013-09-04 00:02:00,67.0,43.0,-100.00,SSE,159,2.0,14.0,41,0.00,,,0.00,0.000000,,2013-09-04 07:02:00,
2013-09-04 00:11:00,67.0,43.0,-100.00,SSE,159,2.0,14.0,41,0.00,,,0.00,0.000000,,2013-09-04 07:11:00,
2013-09-04 00:22:00,67.0,43.0,-100.00,SSE,159,2.0,14.0,41,0.00,,,0.00,0.000000,,2013-09-04 07:22:00,
2013-09-04 00:52:00,68.0,43.0,-100.00,SW,218,4.0,7.0,40,0.00,,,0.00,0.000000,,2013-09-04 07:52:00,
2013-09-04 01:02:00,68.0,43.0,-100.00,SW,218,4.0,7.0,40,0.00,,,0.00,0.000000,,2013-09-04 08:02:00,
2013-09-04 01:12:00,68.0,43.0,-100.00,SW,218,4.0,7.0,40,0.00,,,0.00,0.000000,,2013-09-04 08:12:00,
2013-09-04 01:22:00,68.0,43.0,-100.00,SW,218,4.0,7.0,40,0.00,,,0.00,0.000000,,2013-09-04 08:22:00,
2013-09-04 01:52:00,68.0,43.0,-100.00,SSW,210,9.0,9.0,40,0.00,,,0.00,0.000000,,2013-09-04 08:52:00,
2013-09-04 02:01:00,68.0,43.0,-100.00,SSW,210,9.0,9.0,40,0.00,,,0.00,0.000000,,2013-09-04 09:01:00,
2013-09-04 02:11:00,68.0,43.0,-100.00,SSW,210,9.0,9.0,40,0.00,,,0.00,0.000000,,2013-09-04 09:11:00,
2013-09-04 02:21:00,68.0,43.0,-100.00,SSW,210,9.0,9.0,40,0.00,,,0.00,0.000000,,2013-09-04 09:21:00,
2013-09-04 03:52:00,69.0,46.0,-100.00,WSW,241,11.0,15.0,43,0.00,,,0.00,0.000000,,2013-09-04 10:52:00,
2013-09-04 04:02:00,69.0,46.0,-100.00,WSW,241,11.0,15.0,43,0.00,,,0.00,0.000000,,2013-09-04 11:02:00,
2013-09-04 04:12:00,69.0,46.0,-100.00,WSW,241,11.0,15.0,43,0.00,,,0.00,0.000000,,2013-09-04 11:12:00,
2013-09-04 04:22:00,69.0,46.0,-100.00,WSW,241,11.0,15.0,43,0.00,,,0.00,0.000000,,2013-09-04 11:22:00,
2013-09-04 04:52:00,67.0,45.0,-100.00,WNW,286,4.0,15.0,45,-99.99,,,0.00,0.000000,,2013-09-04 11:52:00,
2013-09-04 05:01:00,67.0,45.0,-100.00,WNW,286,4.0,15.0,45,-99.99,,,0.00,0.000000,,2013-09-04 12:01:00,
2013-09-04 05:11:00,67.0,45.0,-100.00,WNW,286,4.0,15.0,45,-99.99,,,0.00,0.000000,,2013-09-04 12:11:00,
2013-09-04 05:52:00,66.0,42.0,-100.00,West,259,9.0,12.0,42,-99.99,,,0.00,0.000000,,2013-09-04 12:52:00,
2013-09-04 06:01:00,66.0,42.0,-100.00,West,259,9.0,12.0,42,-99.99,,,0.00,0.000000,,2013-09-04 13:01:00,
2013-09-04 06:11:00,66.0,42.0,-100.00,West,259,9.0,12.0,42,-99.99,,,0.00,0.000000,,2013-09-04 13:11:00,
2013-09-04 06:52:00,66.0,43.0,-100.00,SW,232,4.0,12.0,43,0.00,,,0.00,0.000000,,2013-09-04 13:52:00,
2013-09-04 07:01:00,66.0,43.0,-100.00,SW,232,4.0,12.0,43,0.00,,,0.00,0.000000,,2013-09-04 14:01:00,
2013-09-04 07:11:00,66.0,43.0,-100.00,SW,232,4.0,12.0,43,0.00,,,0.00,0.000000,,2013-09-04 14:11:00,
2013-09-04 07:21:00,66.0,43.0,-100.00,SW,232,4.0,12.0,43,0.00,,,0.00,0.000000,,2013-09-04 14:21:00,
2013-09-04 07:52:00,66.0,41.0,-100.00,WSW,251,4.0,11.0,40,0.00,,,0.00,0.000000,,2013-09-04 14:52:00,
2013-09-04 08:02:00,66.0,41.0,-100.00,WSW,251,4.0,11.0,40,0.00,,,0.00,0.000000,,2013-09-04 15:02:00,
2013-09-04 08:12:00,66.0,41.0,-100.00,WSW,251,4.0,11.0,40,0.00,,,0.00,0.000000,,2013-09-04 15:12:00,
2013-09-04 08:53:00,70.0,40.0,-100.00,WNW,286,1.0,8.0,33,0.00,,,0.00,88.000000,,2013-09-04 15:53:00,
2013-09-04 09:04:00,70.0,40.0,-100.00,WNW,286,1.0,8.0,33,0.00,,,0.00,88.000000,,2013-09-04 16:04:00,
2013-09-04 09:12:00,70.0,40.0,-100.00,WNW,286,1.0,8.0,33,0.00,,,0.00,88.000000,,2013-09-04 16:12:00,
2013-09-04 09:23:00,70.0,40.0,-100.00,WNW,286,1.0,8.0,33,0.00,,,0.00,88.000000,,2013-09-04 16:23:00,
2013-09-04 10:22:00,76.0,43.0,-100.00,WSW,248,3.0,4.0,31,0.00,,,0.00,336.000000,,2013-09-04 17:22:00,
2013-09-04 10:53:00,77.0,43.0,-100.00,SSE,150,4.0,5.0,30,0.00,,,0.00,598.000000,,2013-09-04 17:53:00,
2013-09-04 11:02:00,77.0,43.0,-100.00,SSE,150,4.0,5.0,30,0.00,,,0.00,598.000000,,2013-09-04 18:02:00,
2013-09-04 11:12:00,77.0,43.0,-100.00,SSE,150,4.0,5.0,30,0.00,,,0.00,598.000000,,2013-09-04 18:12:00,
2013-09-04 11:52:00,80.0,40.0,-100.00,SSE,151,5.0,7.0,24,0.00,,,0.00,845.000000,,2013-09-04 18:52:00,
2013-09-04 12:02:00,80.0,40.0,-100.00,SSE,151,5.0,7.0,24,0.00,,,0.00,845.000000,,2013-09-04 19:02:00,
2013-09-04 12:11:00,80.0,40.0,-100.00,SSE,151,5.0,7.0,24,0.00,,,0.00,845.000000,,2013-09-04 19:11:00,
2013-09-04 12:22:00,80.0,40.0,-100.00,SSE,151,5.0,7.0,24,0.00,,,0.00,845.000000,,2013-09-04 19:22:00,
2013-09-04 13:53:00,81.0,45.0,-100.00,ESE,119,10.0,15.0,28,0.00,,,0.00,1125.000000,,2013-09-04 20:53:00,
2013-09-04 14:01:00,81.0,45.0,-100.00,ESE,119,10.0,15.0,28,0.00,,,0.00,1125.000000,,2013-09-04 21:01:00,
2013-09-04 14:11:00,81.0,45.0,-100.00,ESE,119,10.0,15.0,28,0.00,,,0.00,1125.000000,,2013-09-04 21:11:00,
2013-09-04 14:22:00,81.0,45.0,-100.00,ESE,119,10.0,15.0,28,0.00,,,0.00,1125.000000,,2013-09-04 21:22:00,
2013-09-04 14:54:00,79.0,39.0,-100.00,East,91,9.0,17.0,24,0.00,,,0.00,1159.000000,,2013-09-04 21:54:00,
2013-09-04 15:04:00,79.0,39.0,-100.00,East,91,9.0,17.0,24,0.00,,,0.00,1159.000000,,2013-09-04 22:04:00,
2013-09-04 15:14:00,79.0,39.0,-100.00,East,91,9.0,17.0,24,0.00,,,0.00,1159.000000,,2013-09-04 22:14:00,
2013-09-04 15:23:00,79.0,39.0,-100.00,East,91,9.0,17.0,24,0.00,,,0.00,1159.000000,,2013-09-04 22:23:00,
2013-09-04 15:54:00,84.0,43.0,-100.00,South,180,16.0,21.0,24,0.00,,,0.00,1139.000000,,2013-09-04 22:54:00,
2013-09-04 16:03:00,84.0,43.0,-100.00,South,180,16.0,21.0,24,0.00,,,0.00,1139.000000,,2013-09-04 23:03:00,
2013-09-04 16:13:00,84.0,43.0,-100.00,South,180,16.0,21.0,24,0.00,,,0.00,1139.000000,,2013-09-04 23:13:00,
2013-09-04 16:22:00,84.0,43.0,-100.00,South,180,16.0,21.0,24,0.00,,,0.00,1139.000000,,2013-09-04 23:22:00,
2013-09-04 16:52:00,82.0,43.0,-100.00,South,179,4.0,26.0,25,0.00,,,-99.99,798.000000,,2013-09-04 23:52:00,
2013-09-04 17:01:00,82.0,43.0,-100.00,South,179,4.0,26.0,25,0.00,,,-99.99,798.000000,,2013-09-05 00:01:00,
2013-09-04 17:11:00,82.0,43.0,-100.00,South,179,4.0,26.0,25,0.00,,,-99.99,798.000000,,2013-09-05 00:11:00,
2013-09-04 17:52:00,81.0,42.0,-100.00,West,278,13.0,22.0,25,0.00,,,0.00,456.000000,,2013-09-05 00:52:00,
2013-09-04 18:01:00,81.0,42.0,-100.00,West,278,13.0,22.0,25,0.00,,,0.00,456.000000,,2013-09-05 01:01:00,
2013-09-04 18:11:00,81.0,42.0,-100.00,West,278,13.0,22.0,25,0.00,,,0.00,456.000000,,2013-09-05 01:11:00,
2013-09-04 18:21:00,81.0,42.0,-100.00,West,278,13.0,22.0,25,0.00,,,0.00,456.000000,,2013-09-05 01:21:00,
2013-09-04 18:52:00,82.0,45.0,-100.00,WNW,283,8.0,21.0,27,0.00,,,0.00,532.000000,,2013-09-05 01:52:00,
2013-09-04 19:02:00,82.0,45.0,-100.00,WNW,283,8.0,21.0,27,0.00,,,0.00,532.000000,,2013-09-05 02:02:00,
2013-09-04 19:11:00,82.0,45.0,-100.00,WNW,283,8.0,21.0,27,0.00,,,0.00,532.000000,,2013-09-05 02:11:00,
2013-09-04 20:22:00,81.0,55.0,-100.00,South,179,12.0,16.0,41,-99.99,,,0.00,328.000000,,2013-09-05 03:22:00,
2013-09-04 20:54:00,71.0,46.0,-100.00,SSW,203,10.0,23.0,41,-99.99,,,0.00,60.000000,,2013-09-05 03:54:00,
2013-09-04 21:04:00,71.0,46.0,-100.00,SSW,203,10.0,23.0,41,-99.99,,,0.00,60.000000,,2013-09-05 04:04:00,
2013-09-04 21:13:00,71.0,46.0,-100.00,SSW,203,10.0,23.0,41,-99.99,,,0.00,60.000000,,2013-09-05 04:13:00,
2013-09-04 21:23:00,71.0,46.0,-100.00,SSW,203,10.0,23.0,41,-99.99,,,0.00,60.000000,,2013-09-05 04:23:00,
2013-09-04 21:53:00,69.0,42.0,-100.00,SW,227,10.0,19.0,38,-99.99,,,0.00,0.000000,,2013-09-05 04:53:00,
2013-09-04 22:03:00,69.0,42.0,-100.00,SW,227,10.0,19.0,38,-99.99,,,0.00,0.000000,,2013-09-05 05:03:00,
2013-09-04 22:12:00,69.0,42.0,-100.00,SW,227,10.0,19.0,38,-99.99,,,0.00,0.000000,,2013-09-05 05:12:00,
2013-09-04 22:23:00,69.0,42.0,-100.00,SW,227,10.0,19.0,38,-99.99,,,0.00,0.000000,,2013-09-05 05:23:00,
2013-09-04 23:52:00,69.0,42.0,-100.00,West,279,10.0,12.0,38,-99.99,,,0.00,0.000000,,2013-09-05 06:52:00,